createdAt,value
2018-04-15T00:02:20.263Z,52.03
2018-04-15T00:04:47.744Z,57.80
2018-04-15T00:07:15.296Z,53.10
2018-04-15T00:09:42.758Z,58.90
2018-04-15T00:12:10.235Z,55.60
2018-04-15T00:14:37.729Z,52.20
2018-04-15T00:17:05.275Z,54.23
2018-04-15T00:19:32.776Z,51.40
2018-04-15T00:22:00.223Z,50.03
2018-04-15T00:24:27.806Z,54.47
2018-04-15T00:26:55.287Z,54.07
2018-04-15T00:29:22.831Z,56.77
2018-04-15T00:31:50.322Z,55.13
2018-04-15T00:34:17.781Z,54.60
2018-04-15T00:36:45.269Z,52.20
2018-04-15T00:39:12.777Z,47.90
2018-04-15T00:41:40.996Z,54.77
2018-04-15T00:44:08.482Z,50.07
2018-04-15T00:46:36.054Z,50.80
2018-04-15T00:49:03.608Z,52.50
2018-04-15T00:51:31.075Z,60.83
2018-04-15T00:54:10.503Z,54.80
2018-04-15T00:56:38.022Z,55.50
2018-04-15T00:59:05.590Z,54.53
2018-04-15T01:01:33.056Z,54.63
2018-04-15T01:04:00.635Z,52.80
2018-04-15T01:06:28.203Z,53.43
2018-04-15T01:08:55.676Z,52.17
2018-04-15T01:11:23.247Z,61.40
2018-04-15T01:13:50.723Z,51.03
2018-04-15T01:16:18.284Z,55.47
2018-04-15T01:18:45.749Z,56.33
2018-04-15T01:21:13.211Z,55.90
2018-04-15T01:23:40.700Z,53.37
2018-04-15T01:26:08.951Z,58.17
2018-04-15T01:28:36.453Z,54.53
2018-04-15T01:31:03.907Z,61.97
2018-04-15T01:33:31.388Z,56.60
2018-04-15T01:35:58.850Z,55.80
2018-04-15T01:38:26.317Z,58.63
2018-04-15T01:40:53.806Z,60.70
2018-04-15T01:43:21.358Z,59.10
2018-04-15T01:45:48.826Z,58.33
2018-04-15T01:48:16.400Z,62.30
2018-04-15T01:50:43.972Z,57.53
2018-04-15T01:53:11.434Z,59.73
2018-04-15T01:55:38.922Z,63.40
2018-04-15T01:58:06.386Z,63.80
2018-04-15T02:00:33.871Z,57.30
2018-04-15T02:03:01.350Z,57.13
2018-04-15T02:05:28.902Z,67.03
2018-04-15T02:07:56.363Z,63.63
2018-04-15T02:10:23.816Z,71.50
2018-04-15T02:12:51.315Z,63.93
2018-04-15T02:15:18.872Z,67.40
2018-04-15T02:17:46.458Z,71.67
2018-04-15T02:20:14.026Z,69.93
2018-04-15T02:22:41.490Z,66.67
2018-04-15T02:25:08.952Z,63.70
2018-04-15T02:27:36.431Z,74.60
2018-04-15T02:30:04.018Z,70.80
2018-04-15T02:32:31.592Z,71.60
2018-04-15T02:34:59.207Z,69.43
2018-04-15T02:37:26.723Z,71.43
2018-04-15T02:39:54.196Z,64.27
2018-04-15T02:42:21.687Z,62.20
2018-04-15T02:44:49.150Z,67.80
2018-04-15T02:47:16.613Z,70.80
2018-04-15T02:49:44.174Z,72.43
2018-04-15T02:52:11.656Z,77.43
2018-04-15T02:54:39.107Z,71.37
2018-04-15T02:57:06.572Z,65.87
2018-04-15T02:59:34.066Z,69.63
2018-04-15T03:02:01.546Z,68.67
2018-04-15T03:04:29.022Z,69.53
2018-04-15T03:06:57.268Z,73.63
2018-04-15T03:09:24.759Z,70.07
2018-04-15T03:11:52.235Z,66.07
2018-04-15T03:14:19.810Z,71.77
2018-04-15T03:16:47.362Z,72.10
2018-04-15T03:19:14.820Z,71.80
2018-04-15T03:21:42.404Z,65.30
2018-04-15T03:24:09.874Z,88.80
2018-04-15T03:26:37.448Z,79.50
2018-04-15T03:29:04.917Z,74.00
2018-04-15T03:31:32.383Z,72.20
2018-04-15T03:33:59.848Z,72.77
2018-04-15T03:36:27.311Z,79.83
2018-04-15T03:38:54.786Z,76.80
2018-04-15T03:41:22.251Z,80.93
2018-04-15T03:43:49.824Z,77.17
2018-04-15T03:46:17.308Z,82.27
2018-04-15T03:48:44.760Z,81.63
2018-04-15T03:51:12.258Z,80.70
2018-04-15T03:53:39.723Z,86.80
2018-04-15T03:56:07.993Z,88.73
2018-04-15T03:58:35.572Z,75.47
2018-04-15T04:01:03.056Z,87.43
2018-04-15T04:03:30.503Z,88.87
2018-04-15T04:05:57.982Z,79.47
2018-04-15T04:08:25.453Z,81.27
2018-04-15T04:10:52.924Z,75.17
2018-04-15T04:13:20.399Z,93.47
2018-04-15T04:15:47.856Z,85.53
2018-04-15T04:18:27.328Z,97.50
2018-04-15T04:24:07.824Z,97.97
2018-04-15T04:26:35.276Z,106.60
2018-04-15T04:29:02.746Z,98.30
2018-04-15T04:31:30.228Z,102.10
2018-04-15T04:33:57.689Z,111.50
2018-04-15T04:36:25.271Z,98.80
2018-04-15T04:38:52.732Z,107.50
2018-04-15T04:41:20.184Z,106.63
2018-04-15T04:43:47.662Z,110.43
2018-04-15T04:46:15.152Z,112.50
2018-04-15T04:48:42.607Z,122.53
2018-04-15T04:51:10.071Z,113.20
2018-04-15T04:53:37.644Z,121.70
2018-04-15T04:56:05.118Z,122.75
2018-04-15T04:58:32.592Z,108.55
2018-04-15T05:01:00.070Z,109.77
2018-04-15T05:03:27.550Z,109.35
2018-04-15T05:05:55.095Z,106.83
2018-04-15T05:08:22.567Z,111.53
2018-04-15T05:10:50.046Z,114.53
2018-04-15T05:13:17.500Z,114.70
2018-04-15T05:15:44.972Z,119.10
2018-04-15T05:18:12.432Z,107.73
2018-04-15T05:20:39.926Z,125.70
2018-04-15T05:23:07.399Z,111.33
2018-04-15T05:25:34.883Z,110.60
2018-04-15T05:28:02.450Z,115.87
2018-04-15T05:30:29.887Z,112.70
2018-04-15T05:32:57.344Z,117.73
2018-04-15T05:35:24.835Z,117.77
2018-04-15T05:37:52.311Z,114.20
2018-04-15T05:40:19.751Z,133.33
2018-04-15T05:42:47.216Z,126.03
2018-04-15T05:45:14.668Z,120.27
2018-04-15T05:47:42.185Z,137.40
2018-04-15T05:50:10.363Z,125.60
2018-04-15T05:52:37.850Z,116.37
2018-04-15T05:55:05.328Z,137.97
2018-04-15T05:57:32.795Z,129.63
2018-04-15T06:00:00.352Z,121.20
2018-04-15T06:02:27.813Z,126.63
2018-04-15T06:04:55.279Z,128.43
2018-04-15T06:07:22.754Z,122.50
2018-04-15T06:09:50.200Z,125.67
2018-04-15T06:12:17.695Z,116.97
2018-04-15T06:14:45.160Z,116.97
2018-04-15T06:17:12.634Z,120.40
2018-04-15T06:19:40.119Z,112.73
2018-04-15T06:22:07.578Z,121.83
2018-04-15T06:24:35.124Z,113.97
2018-04-15T06:27:02.525Z,122.30
2018-04-15T06:29:29.990Z,125.27
2018-04-15T06:31:57.460Z,119.13
2018-04-15T06:34:24.919Z,109.73
2018-04-15T06:36:52.410Z,99.00
2018-04-15T06:39:19.852Z,110.50
2018-04-15T06:41:47.308Z,106.23
2018-04-15T06:44:14.808Z,104.23
2018-04-15T06:46:42.280Z,99.17
2018-04-15T06:49:09.754Z,105.93
2018-04-15T06:51:37.196Z,101.63
2018-04-15T06:54:04.693Z,108.13
2018-04-15T06:56:32.140Z,137.43
2018-04-15T06:58:59.606Z,142.62
2018-04-15T07:01:27.096Z,133.65
2018-04-15T07:03:54.552Z,131.27
2018-04-15T07:06:22.075Z,118.07
2018-04-15T07:08:49.500Z,103.90
2018-04-15T07:11:16.982Z,105.27
2018-04-15T07:13:44.439Z,100.70
2018-04-15T07:16:11.915Z,90.60
2018-04-15T07:18:39.368Z,81.85
2018-04-15T07:21:06.828Z,80.87
2018-04-15T07:23:34.335Z,74.72
2018-04-15T07:26:01.814Z,69.43
2018-04-15T07:28:29.268Z,61.28
2018-04-15T07:30:56.719Z,62.42
2018-04-15T07:33:24.189Z,59.83
2018-04-15T07:35:51.662Z,56.85
2018-04-15T07:38:19.130Z,56.15
2018-04-15T07:40:46.598Z,51.35
2018-04-15T07:43:14.060Z,46.22
2018-04-15T07:45:41.533Z,51.28
2018-04-15T07:48:09.007Z,48.35
2018-04-15T07:50:36.473Z,47.78
2018-04-15T07:53:03.920Z,47.30
2018-04-15T07:55:31.431Z,47.72
2018-04-15T07:57:58.998Z,40.95
2018-04-15T08:00:26.451Z,40.60
2018-04-15T08:02:53.912Z,40.12
2018-04-15T08:05:21.364Z,31.50
2018-04-15T08:07:48.835Z,31.73
2018-04-15T08:10:16.306Z,27.23
2018-04-15T08:12:43.804Z,28.13
2018-04-15T08:15:11.273Z,28.53
2018-04-15T08:17:38.740Z,29.97
2018-04-15T08:20:06.210Z,20.87
2018-04-15T08:22:33.656Z,22.53
2018-04-15T08:25:01.145Z,21.67
2018-04-15T08:27:28.614Z,19.70
2018-04-15T08:29:56.088Z,19.93
2018-04-15T08:32:23.577Z,22.80
2018-04-15T08:34:51.038Z,16.00
2018-04-15T08:37:18.511Z,15.03
2018-04-15T08:39:45.956Z,18.17
2018-04-15T08:42:13.458Z,15.53
2018-04-15T08:44:41.019Z,13.33
2018-04-15T08:47:08.575Z,15.13
2018-04-15T08:49:36.030Z,15.85
2018-04-15T08:52:03.522Z,12.77
2018-04-15T08:54:31.121Z,13.53
2018-04-15T08:56:58.659Z,13.93
2018-04-15T08:59:26.113Z,11.68
2018-04-15T09:01:53.580Z,11.60
2018-04-15T09:04:21.034Z,11.63
2018-04-15T09:06:48.491Z,11.25
2018-04-15T09:09:16.722Z,10.75
2018-04-15T09:11:44.163Z,12.20
2018-04-15T09:14:11.714Z,10.88
2018-04-15T09:16:39.935Z,10.63
2018-04-15T09:19:07.399Z,11.70
2018-04-15T09:21:34.866Z,11.68
2018-04-15T09:24:02.327Z,12.65
2018-04-15T09:26:29.835Z,10.98
2018-04-15T09:28:58.030Z,11.20
2018-04-15T09:31:25.494Z,9.70
2018-04-15T09:33:52.982Z,9.25
2018-04-15T09:36:20.538Z,10.27
2018-04-15T09:38:48.006Z,12.93
2018-04-15T09:41:15.467Z,9.85
2018-04-15T09:43:43.012Z,9.40
2018-04-15T09:46:10.514Z,8.80
2018-04-15T09:48:37.972Z,8.20
2018-04-15T09:51:05.444Z,11.32
2018-04-15T09:53:32.935Z,8.50
2018-04-15T09:56:00.386Z,7.25
2018-04-15T09:58:27.866Z,7.10
2018-04-15T10:01:00.999Z,6.90
2018-04-15T10:03:29.234Z,7.43
2018-04-15T10:05:56.682Z,7.37
2018-04-15T10:08:24.132Z,6.90
2018-04-15T10:10:52.339Z,5.00
2018-04-15T10:13:19.866Z,5.30
2018-04-15T10:15:47.322Z,4.87
2018-04-15T10:18:14.760Z,5.10
2018-04-15T10:20:42.267Z,5.40
2018-04-15T10:23:09.712Z,5.30
2018-04-15T10:25:37.170Z,5.18
2018-04-15T10:28:04.635Z,5.60
2018-04-15T10:30:32.086Z,5.22
2018-04-15T10:33:00.320Z,4.82
2018-04-15T10:35:27.803Z,4.85
2018-04-15T10:37:55.263Z,5.07
2018-04-15T10:40:22.715Z,4.70
2018-04-15T10:42:50.206Z,4.32
2018-04-15T10:45:17.679Z,4.50
2018-04-15T10:47:45.237Z,4.60
2018-04-15T10:50:12.767Z,4.75
2018-04-15T10:52:41.007Z,4.50
2018-04-15T10:55:08.463Z,4.70
2018-04-15T10:57:35.932Z,4.97
2018-04-15T11:00:03.414Z,3.90
2018-04-15T11:02:30.868Z,4.60
2018-04-15T11:04:58.370Z,4.35
2018-04-15T11:07:25.926Z,4.80
2018-04-15T11:09:53.375Z,5.10
2018-04-15T11:12:20.863Z,5.60
2018-04-15T11:14:48.308Z,4.90
2018-04-15T11:17:15.756Z,4.93
2018-04-15T11:19:43.203Z,5.27
2018-04-15T11:22:11.468Z,5.30
2018-04-15T11:24:38.944Z,5.30
2018-04-15T11:27:06.399Z,5.00
2018-04-15T11:29:33.840Z,4.67
2018-04-15T11:32:01.284Z,4.82
2018-04-15T11:34:28.759Z,5.90
2018-04-15T11:36:56.283Z,5.05
2018-04-15T11:39:23.749Z,5.10
2018-04-15T11:41:51.214Z,5.07
2018-04-15T11:44:18.687Z,5.00
2018-04-15T11:46:46.139Z,4.72
2018-04-15T11:49:13.676Z,5.10
2018-04-15T11:51:41.130Z,5.62
2018-04-15T11:54:09.367Z,5.20
2018-04-15T11:56:36.830Z,5.32
2018-04-15T11:59:04.265Z,6.17
2018-04-15T12:01:32.525Z,6.10
2018-04-15T12:04:01.491Z,6.10
2018-04-15T12:06:28.935Z,5.63
2018-04-15T12:08:56.402Z,5.87
2018-04-15T12:11:24.618Z,6.93
2018-04-15T12:13:52.075Z,6.57
2018-04-15T12:16:19.564Z,7.20
2018-04-15T12:18:47.075Z,6.87
2018-04-15T12:21:14.515Z,7.90
2018-04-15T12:23:41.991Z,7.73
2018-04-15T12:26:09.473Z,7.87
2018-04-15T12:28:36.933Z,7.80
2018-04-15T12:31:04.390Z,7.30
2018-04-15T12:33:31.863Z,8.30
2018-04-15T12:35:59.329Z,9.48
2018-04-15T12:38:26.780Z,6.80
2018-04-15T12:40:54.249Z,7.03
2018-04-15T12:43:21.741Z,7.12
2018-04-15T12:45:49.210Z,6.95
2018-04-15T12:48:16.677Z,6.50
2018-04-15T12:50:44.137Z,6.87
2018-04-15T12:53:11.576Z,7.35
2018-04-15T12:55:39.068Z,7.60
2018-04-15T12:58:06.551Z,8.50
2018-04-15T13:00:34.026Z,7.50
2018-04-15T13:03:01.504Z,7.50
2018-04-15T13:05:28.954Z,7.50
2018-04-15T13:07:56.454Z,7.55
2018-04-15T13:10:23.901Z,6.90
2018-04-15T13:12:51.342Z,6.60
2018-04-15T13:15:18.804Z,5.60
2018-04-15T13:17:46.328Z,5.80
2018-04-15T13:20:15.285Z,6.20
2018-04-15T13:22:42.777Z,5.30
2018-04-15T13:25:10.236Z,6.70
2018-04-15T13:27:37.727Z,4.95
2018-04-15T13:30:05.173Z,4.90
2018-04-15T13:32:32.608Z,4.40
2018-04-15T13:35:00.830Z,4.28
2018-04-15T13:37:28.276Z,4.37
2018-04-15T13:39:55.802Z,4.10
2018-04-15T13:42:23.261Z,3.80
2018-04-15T13:44:50.819Z,4.20
2018-04-15T13:47:18.291Z,4.15
2018-04-15T13:49:45.872Z,4.30
2018-04-15T13:52:13.348Z,4.90
2018-04-15T13:54:40.804Z,3.80
2018-04-15T13:57:08.256Z,3.80
2018-04-15T13:59:35.752Z,3.80
2018-04-15T14:02:03.225Z,3.83
2018-04-15T14:04:30.792Z,5.07
2018-04-15T14:06:58.244Z,3.62
2018-04-15T14:09:25.702Z,3.72
2018-04-15T14:11:53.210Z,3.97
2018-04-15T14:14:20.636Z,3.00
2018-04-15T14:16:48.125Z,3.90
2018-04-15T14:19:15.614Z,3.03
2018-04-15T14:21:43.062Z,3.70
2018-04-15T14:24:10.537Z,3.40
2018-04-15T14:26:37.976Z,5.20
2018-04-15T14:29:05.412Z,6.30
2018-04-15T14:31:32.935Z,4.70
2018-04-15T14:34:00.372Z,4.23
2018-04-15T14:36:28.599Z,4.50
2018-04-15T14:38:56.065Z,4.37
2018-04-15T14:41:23.518Z,4.40
2018-04-15T14:43:51.021Z,4.40
2018-04-15T14:46:18.484Z,4.40
2018-04-15T14:48:45.964Z,3.83
2018-04-15T14:58:35.412Z,4.80
2018-04-15T15:08:23.926Z,4.43
2018-04-15T17:30:38.669Z,4.55
2018-04-15T17:33:06.151Z,6.87
2018-04-15T17:35:33.621Z,18.62
2018-04-15T17:38:01.082Z,14.87
2018-04-15T17:40:28.557Z,13.25
2018-04-15T17:42:56.028Z,6.00
2018-04-15T17:45:23.572Z,5.07
2018-04-15T17:47:51.067Z,6.57
2018-04-15T17:50:18.535Z,7.40
2018-04-15T17:52:46.037Z,26.50
2018-04-15T17:55:13.495Z,15.95
2018-04-15T17:57:41.716Z,20.58
2018-04-15T18:00:09.230Z,14.55
2018-04-15T18:02:36.878Z,11.33
2018-04-15T18:05:04.373Z,11.85
2018-04-15T18:07:31.851Z,8.38
2018-04-15T18:09:59.284Z,5.13
2018-04-15T18:12:26.749Z,6.07
2018-04-15T18:14:54.246Z,5.20
2018-04-15T18:17:21.800Z,6.53
2018-04-15T18:19:49.267Z,6.23
2018-04-15T18:22:16.774Z,112.87
2018-04-15T18:24:44.312Z,21.30
2018-04-15T18:27:11.766Z,6.17
2018-04-15T18:29:39.213Z,5.43
2018-04-15T18:32:06.679Z,3.13
2018-04-15T18:34:34.892Z,4.57
2018-04-15T18:37:02.461Z,12.20
2018-04-15T18:39:30.633Z,7.37
2018-04-15T18:41:58.141Z,4.30
2018-04-15T18:44:25.622Z,3.83
2018-04-15T18:46:53.078Z,5.13
2018-04-15T18:49:20.554Z,4.10
2018-04-15T18:51:48.017Z,4.80
2018-04-15T18:54:15.469Z,4.30
2018-04-15T18:56:42.917Z,5.60
2018-04-15T18:59:10.433Z,5.77
2018-04-15T19:01:37.884Z,4.50
2018-04-15T19:04:05.354Z,3.83
2018-04-15T19:06:32.799Z,4.57
2018-04-15T19:09:00.256Z,5.00
2018-04-15T19:11:28.474Z,4.60
2018-04-15T19:13:55.928Z,3.70
2018-04-15T19:16:23.450Z,4.77
2018-04-15T19:18:51.732Z,4.40
2018-04-15T19:21:19.317Z,5.50
2018-04-15T19:23:46.875Z,5.27
2018-04-15T19:26:14.359Z,10.80
2018-04-15T19:28:41.830Z,7.07
2018-04-15T19:31:09.298Z,8.37
2018-04-15T19:33:36.736Z,4.80
2018-04-15T19:36:04.225Z,8.30
2018-04-15T19:38:31.790Z,7.93
2018-04-15T19:40:59.285Z,5.27
2018-04-15T19:43:26.716Z,6.63
2018-04-15T19:45:54.193Z,5.70
2018-04-15T19:48:21.659Z,5.47
2018-04-15T19:50:49.105Z,6.00
2018-04-15T19:53:16.551Z,5.87
2018-04-15T19:55:44.032Z,6.23
2018-04-15T19:58:11.475Z,6.13
2018-04-15T20:00:39.731Z,6.67
2018-04-15T20:03:07.301Z,8.07
2018-04-15T20:05:34.860Z,8.90
2018-04-15T20:08:02.448Z,8.83
2018-04-15T20:10:29.979Z,6.33
2018-04-15T20:12:57.411Z,6.80
2018-04-15T20:15:25.671Z,7.40
2018-04-15T20:17:53.251Z,7.40
2018-04-15T20:20:20.826Z,8.13
2018-04-15T20:22:48.303Z,7.90
2018-04-15T20:25:15.756Z,7.43
2018-04-15T20:27:43.230Z,8.17
2018-04-15T20:30:10.679Z,7.97
2018-04-15T20:32:38.135Z,11.80
2018-04-15T20:35:05.630Z,13.37
2018-04-15T20:37:33.106Z,15.57
2018-04-15T20:40:00.582Z,12.03
2018-04-15T20:42:28.041Z,11.00
2018-04-15T20:44:55.523Z,11.93
2018-04-15T20:47:22.986Z,10.70
2018-04-15T20:49:50.440Z,10.47
2018-04-15T20:52:17.926Z,12.23
2018-04-15T20:54:46.147Z,11.10
2018-04-15T20:57:14.419Z,12.83
2018-04-15T20:59:42.692Z,11.90
2018-04-15T21:02:10.170Z,12.97
2018-04-15T21:04:37.626Z,14.20
2018-04-15T21:07:05.093Z,14.50
2018-04-15T21:09:32.548Z,15.57
2018-04-15T21:12:00.058Z,13.23
2018-04-15T21:14:27.510Z,12.03
2018-04-15T21:16:54.965Z,15.70
2018-04-15T21:19:22.551Z,13.20
2018-04-15T21:21:50.176Z,11.50
2018-04-15T21:24:17.644Z,10.13
2018-04-15T21:26:45.144Z,10.47
2018-04-15T21:29:12.610Z,11.97
2018-04-15T21:31:40.087Z,11.10
2018-04-15T21:34:07.555Z,10.57
2018-04-15T21:36:35.039Z,10.63
2018-04-15T21:39:02.504Z,10.60
2018-04-15T21:41:30.000Z,12.63
2018-04-15T21:43:57.474Z,11.97
2018-04-15T21:46:25.004Z,11.00
2018-04-15T21:48:52.487Z,11.50
2018-04-15T21:51:19.949Z,10.93
2018-04-15T21:53:47.434Z,11.67
2018-04-15T21:56:14.910Z,10.57
2018-04-15T21:58:42.385Z,10.50
2018-04-15T22:01:09.851Z,12.40
2018-04-15T22:03:38.139Z,11.33
2018-04-15T22:06:05.591Z,12.13
2018-04-15T22:08:33.061Z,11.77
2018-04-15T22:11:00.525Z,11.00
2018-04-15T22:13:27.997Z,11.43
2018-04-15T22:15:55.562Z,12.23
2018-04-15T22:18:23.044Z,11.17
2018-04-15T22:20:50.510Z,12.03
2018-04-15T22:23:18.074Z,11.20
2018-04-15T22:25:45.655Z,11.00
2018-04-15T22:28:13.226Z,10.67
2018-04-15T22:30:40.692Z,11.53
2018-04-15T22:33:08.162Z,11.37
2018-04-15T22:35:35.639Z,15.47
2018-04-15T22:38:03.096Z,12.77
2018-04-15T22:40:30.665Z,12.83
2018-04-15T22:42:58.147Z,12.10
2018-04-15T22:45:25.677Z,11.53
2018-04-15T22:47:58.910Z,11.80
2018-04-15T22:50:31.937Z,13.17
2018-04-15T22:52:59.404Z,12.10
2018-04-15T22:55:26.967Z,13.53
2018-04-15T22:57:54.542Z,13.93
2018-04-15T23:00:22.001Z,13.10
2018-04-15T23:02:49.483Z,12.50
2018-04-15T23:05:16.940Z,13.03
2018-04-15T23:07:44.405Z,13.87
2018-04-15T23:10:11.866Z,14.93
2018-04-15T23:12:39.329Z,12.43
2018-04-15T23:15:06.798Z,13.10
2018-04-15T23:17:34.285Z,13.60
2018-04-15T23:20:01.762Z,14.40
2018-04-15T23:22:29.325Z,13.50
2018-04-15T23:24:56.806Z,12.83
2018-04-15T23:27:24.364Z,13.87
2018-04-15T23:29:51.815Z,16.00
2018-04-15T23:32:19.322Z,13.80
2018-04-15T23:34:46.801Z,16.27
2018-04-15T23:37:15.228Z,15.97
2018-04-15T23:39:42.686Z,15.60
2018-04-15T23:42:10.167Z,15.13
2018-04-15T23:44:37.640Z,14.43
2018-04-15T23:47:05.145Z,14.77
2018-04-15T23:49:32.625Z,14.73
2018-04-15T23:52:00.210Z,18.00
2018-04-15T23:54:27.656Z,18.20
2018-04-15T23:56:55.156Z,15.90
2018-04-15T23:59:22.608Z,15.33
